createdAt,value
2023-05-13T00:00:02.050Z,101548.22
2023-05-13T00:02:31.758Z,101550.59
2023-05-13T00:04:58.792Z,101544.31
2023-05-13T00:07:25.969Z,101551.28
2023-05-13T00:09:53.077Z,101558.25
2023-05-13T00:12:20.060Z,101549.25
2023-05-13T00:14:46.996Z,101556.22
2023-05-13T00:17:14.512Z,101552.38
2023-05-13T00:19:41.477Z,101552.06
2023-05-13T00:22:08.817Z,101548.22
2023-05-13T00:24:36.205Z,101554.13
2023-05-13T00:27:03.336Z,101551.66
2023-05-13T00:29:31.491Z,101562.13
2023-05-13T00:31:58.677Z,101564.25
2023-05-13T00:34:25.615Z,101561.56
2023-05-13T00:36:52.925Z,101565.31
2023-05-13T00:39:19.953Z,101560.66
2023-05-13T00:41:47.045Z,101559.84
2023-05-13T00:44:14.669Z,101569.31
2023-05-13T00:46:42.575Z,101568.75
2023-05-13T00:49:09.420Z,101570.63
2023-05-13T00:51:37.271Z,101571.69
2023-05-13T00:54:05.202Z,101567.63
2023-05-13T00:56:32.382Z,101578.41
2023-05-13T00:58:59.375Z,101578.66
2023-05-13T01:01:35.085Z,101577.00
2023-05-13T01:04:26.806Z,101578.88
2023-05-13T01:07:34.239Z,101577.97
2023-05-13T01:10:32.819Z,101575.19
2023-05-13T01:13:08.365Z,101588.09
2023-05-13T01:15:46.777Z,101573.22
2023-05-13T01:18:25.616Z,101590.78
2023-05-13T01:20:54.149Z,101584.00
2023-05-13T01:23:21.217Z,101597.47
2023-05-13T01:25:50.399Z,101602.06
2023-05-13T01:28:17.514Z,101594.22
2023-05-13T01:30:49.425Z,101596.09
2023-05-13T01:33:17.712Z,101603.56
2023-05-13T01:35:46.350Z,101600.88
2023-05-13T01:38:16.021Z,101603.00
2023-05-13T01:40:48.688Z,101608.63
2023-05-13T01:43:15.885Z,101610.75
2023-05-13T01:45:42.948Z,101601.75
2023-05-13T01:48:11.070Z,101601.50
2023-05-13T01:50:42.998Z,101613.09
2023-05-13T01:53:10.289Z,101606.56
2023-05-13T01:55:39.356Z,101589.41
2023-05-13T01:58:09.828Z,101608.69
2023-05-13T02:00:36.854Z,101614.56
2023-05-13T02:03:04.215Z,101610.16
2023-05-13T02:05:33.166Z,101602.31
2023-05-13T02:08:04.432Z,101610.63
2023-05-13T02:10:31.512Z,101613.81
2023-05-13T02:13:01.197Z,101609.38
2023-05-13T02:15:28.354Z,101609.38
2023-05-13T02:17:55.602Z,101607.66
2023-05-13T02:20:22.944Z,101601.34
2023-05-13T02:22:50.957Z,101612.13
2023-05-13T02:25:17.911Z,101617.75
2023-05-13T02:27:44.958Z,101607.13
2023-05-13T02:30:12.877Z,101616.50
2023-05-13T02:32:43.984Z,101615.09
2023-05-13T02:35:11.395Z,101621.78
2023-05-13T02:37:38.679Z,101621.78
2023-05-13T02:40:06.922Z,101625.28
2023-05-13T02:42:33.897Z,101622.84
2023-05-13T02:45:01.378Z,101631.97
2023-05-13T02:47:31.126Z,101621.44
2023-05-13T02:50:05.751Z,101623.31
2023-05-13T02:52:35.981Z,101619.72
2023-05-13T02:55:03.917Z,101625.91
2023-05-13T02:57:31.155Z,101630.38
2023-05-13T02:59:58.802Z,101634.69
2023-05-13T03:02:25.964Z,101635.19
2023-05-13T03:04:54.885Z,101628.47
2023-05-13T03:07:23.610Z,101634.09
2023-05-13T03:09:51.188Z,101632.34
2023-05-13T03:12:18.106Z,101640.66
2023-05-13T03:14:45.299Z,101636.78
2023-05-13T03:17:12.522Z,101639.38
2023-05-13T03:19:39.926Z,101643.59
2023-05-13T03:22:07.225Z,101649.69
2023-05-13T03:24:34.207Z,101640.69
2023-05-13T03:27:02.019Z,101640.91
2023-05-13T03:29:29.886Z,101638.34
2023-05-13T03:31:58.913Z,101640.44
2023-05-13T03:34:26.224Z,101635.19
2023-05-13T03:36:53.598Z,101651.31
2023-05-13T03:39:20.671Z,101645.59
2023-05-13T03:41:47.733Z,101646.28
2023-05-13T03:44:14.891Z,101651.66
2023-05-13T03:46:42.847Z,101647.59
2023-05-13T03:49:09.978Z,101649.69
2023-05-13T03:51:36.988Z,101647.22
2023-05-13T03:54:04.534Z,101654.25
2023-05-13T03:56:31.453Z,101662.31
2023-05-13T03:58:59.599Z,101660.09
2023-05-13T04:01:26.602Z,101663.59
2023-05-13T04:03:54.097Z,101668.97
2023-05-13T04:06:21.697Z,101678.91
2023-05-13T04:08:49.930Z,101676.44
2023-05-13T04:11:16.878Z,101672.13
2023-05-13T04:13:45.801Z,101683.69
2023-05-13T04:16:12.709Z,101682.88
2023-05-13T04:18:39.698Z,101680.41
2023-05-13T04:21:11.376Z,101684.75
2023-05-13T04:23:38.496Z,101689.06
2023-05-13T04:26:05.631Z,101684.75
2023-05-13T04:28:32.583Z,101688.03
2023-05-13T04:31:00.711Z,101695.63
2023-05-13T04:33:27.873Z,101690.47
2023-05-13T04:35:54.976Z,101686.50
2023-05-13T04:38:22.662Z,101700.06
2023-05-13T04:40:49.678Z,101699.38
2023-05-13T04:43:22.427Z,101700.53
2023-05-13T04:45:53.895Z,101701.50
2023-05-13T04:48:21.473Z,101706.75
2023-05-13T04:50:49.002Z,101717.16
2023-05-13T04:53:17.250Z,101714.81
2023-05-13T04:55:48.935Z,101710.38
2023-05-13T04:58:16.620Z,101710.03
2023-05-13T05:00:43.910Z,101717.97
2023-05-13T05:03:12.150Z,101716.44
2023-05-13T05:05:39.406Z,101715.34
2023-05-13T05:08:08.284Z,101722.00
2023-05-13T05:10:37.129Z,101715.44
2023-05-13T05:13:05.141Z,101718.81
2023-05-13T05:15:32.319Z,101720.06
2023-05-13T05:18:01.536Z,101730.72
2023-05-13T05:20:28.537Z,101723.09
2023-05-13T05:22:58.295Z,101716.97
2023-05-13T05:25:26.855Z,101730.66
2023-05-13T05:27:53.858Z,101720.31
2023-05-13T05:30:21.291Z,101728.59
2023-05-13T05:32:56.449Z,101726.34
2023-05-13T05:35:24.045Z,101722.81
2023-05-13T05:37:52.370Z,101721.03
2023-05-13T05:40:21.427Z,101732.34
2023-05-13T05:42:48.788Z,101730.63
2023-05-13T05:45:15.832Z,101729.91
2023-05-13T05:47:43.352Z,101727.13
2023-05-13T05:50:11.420Z,101734.91
2023-05-13T05:52:38.466Z,101733.22
2023-05-13T05:55:07.106Z,101735.25
2023-05-13T05:57:35.382Z,101732.13
2023-05-13T06:00:02.414Z,101732.84
2023-05-13T06:02:29.780Z,101735.47
2023-05-13T06:04:57.011Z,101734.00
2023-05-13T06:07:24.704Z,101725.78
2023-05-13T06:09:51.772Z,101733.19
2023-05-13T06:12:18.978Z,101729.78
2023-05-13T06:14:46.001Z,101730.22
2023-05-13T06:17:14.833Z,101729.25
2023-05-13T06:19:42.642Z,101732.91
2023-05-13T06:22:10.892Z,101723.56
2023-05-13T06:24:39.137Z,101730.75
2023-05-13T06:27:07.153Z,101731.94
2023-05-13T06:29:35.084Z,101732.84
2023-05-13T06:32:02.024Z,101724.00
2023-05-13T06:34:29.177Z,101729.28
2023-05-13T06:36:56.250Z,101720.94
2023-05-13T06:39:23.265Z,101711.84
2023-05-13T06:41:50.508Z,101717.59
2023-05-13T06:44:17.521Z,101720.91
2023-05-13T06:46:46.831Z,101700.41
2023-05-13T06:49:13.838Z,101710.78
2023-05-13T06:51:40.894Z,101694.84
2023-05-13T06:54:07.963Z,101705.22
2023-05-13T06:56:35.565Z,101697.44
2023-05-13T06:59:02.545Z,101701.31
2023-05-13T07:01:29.680Z,101698.91
2023-05-13T07:03:56.909Z,101705.78
2023-05-13T07:06:24.020Z,101686.03
2023-05-13T07:08:51.328Z,101672.22
2023-05-13T07:11:18.252Z,101689.59
2023-05-13T07:13:45.373Z,101675.00
2023-05-13T07:16:12.458Z,101688.03
2023-05-13T07:18:39.520Z,101683.44
2023-05-13T07:21:06.689Z,101669.34
2023-05-13T07:23:33.814Z,101684.28
2023-05-13T07:26:00.919Z,101673.66
2023-05-13T07:28:27.842Z,101674.19
2023-05-13T07:30:54.957Z,101670.63
2023-05-13T07:33:22.006Z,101674.13
2023-05-13T07:35:49.162Z,101669.47
2023-05-13T07:38:16.803Z,101676.22
2023-05-13T07:40:43.898Z,101657.66
2023-05-13T07:43:11.726Z,101654.88
2023-05-13T07:45:39.227Z,101650.72
2023-05-13T07:48:06.592Z,101653.56
2023-05-13T07:50:33.729Z,101650.97
2023-05-13T07:53:00.673Z,101656.25
2023-05-13T07:55:27.620Z,101659.91
2023-05-13T07:57:54.665Z,101651.53
2023-05-13T08:00:21.574Z,101642.06
2023-05-13T08:02:48.658Z,101654.59
2023-05-13T08:05:15.804Z,101655.44
2023-05-13T08:07:42.881Z,101638.56
2023-05-13T08:10:10.413Z,101645.88
2023-05-13T08:12:37.499Z,101642.00
2023-05-13T08:15:05.367Z,101647.94
2023-05-13T08:17:32.428Z,101650.03
2023-05-13T08:20:00.156Z,101644.22
2023-05-13T08:22:27.545Z,101648.25
2023-05-13T08:24:54.515Z,101651.69
2023-05-13T08:27:21.474Z,101640.28
2023-05-13T08:29:48.444Z,101643.50
2023-05-13T08:32:15.551Z,101648.56
2023-05-13T08:34:42.677Z,101645.84
2023-05-13T08:37:09.815Z,101645.25
2023-05-13T08:39:36.954Z,101650.63
2023-05-13T08:42:05.062Z,101641.38
2023-05-13T08:44:32.843Z,101639.66
2023-05-13T08:47:23.717Z,101641.78
2023-05-13T08:49:51.467Z,101651.66
2023-05-13T08:52:22.518Z,101645.00
2023-05-13T08:54:50.102Z,101638.97
2023-05-13T08:57:17.389Z,101650.38
2023-05-13T08:59:44.600Z,101638.00
2023-05-13T09:02:12.164Z,101634.75
2023-05-13T09:04:42.242Z,101648.44
2023-05-13T09:07:09.327Z,101642.06
2023-05-13T09:09:36.791Z,101648.53
2023-05-13T09:12:04.458Z,101627.91
2023-05-13T09:14:32.797Z,101624.31
2023-05-13T09:17:01.891Z,101629.16
2023-05-13T09:19:29.217Z,101647.25
2023-05-13T09:21:57.486Z,101616.78
2023-05-13T09:24:24.590Z,101623.22
2023-05-13T09:26:52.054Z,101628.78
2023-05-13T09:29:19.109Z,101615.69
2023-05-13T09:31:49.554Z,101616.97
2023-05-13T09:34:26.777Z,101609.38
2023-05-13T09:37:07.798Z,101613.09
2023-05-13T09:39:43.875Z,101616.38
2023-05-13T09:42:18.751Z,101606.28
2023-05-13T09:44:47.658Z,101600.22
2023-05-13T09:47:16.217Z,101598.41
2023-05-13T09:49:45.454Z,101597.47
2023-05-13T09:52:16.748Z,101609.16
2023-05-13T09:54:45.003Z,101605.53
2023-05-13T09:57:14.086Z,101604.41
2023-05-13T09:59:41.904Z,101598.69
2023-05-13T10:02:09.197Z,101586.53
2023-05-13T10:04:36.354Z,101590.28
2023-05-13T10:07:05.173Z,101593.75
2023-05-13T10:09:37.280Z,101581.59
2023-05-13T10:12:08.935Z,101577.53
2023-05-13T10:14:38.107Z,101594.03
2023-05-13T10:17:06.659Z,101588.00
2023-05-13T10:19:34.915Z,101577.56
2023-05-13T10:22:08.791Z,101576.16
2023-05-13T10:24:39.492Z,101581.84
2023-05-13T10:27:08.653Z,101595.47
2023-05-13T10:29:39.025Z,101588.63
2023-05-13T10:32:08.182Z,101574.25
2023-05-13T10:34:36.600Z,101578.69
2023-05-13T10:37:29.297Z,101572.31
2023-05-13T10:40:30.058Z,101564.34
2023-05-13T10:43:23.403Z,101567.06
2023-05-13T10:45:52.686Z,101575.41
2023-05-13T10:48:19.944Z,101575.06
2023-05-13T10:50:57.146Z,101561.94
2023-05-13T10:53:49.889Z,101561.13
2023-05-13T10:56:21.905Z,101563.53
2023-05-13T10:59:04.924Z,101560.72
2023-05-13T11:01:47.309Z,101567.13
2023-05-13T11:04:21.567Z,101575.94
2023-05-13T11:06:50.692Z,101569.91
2023-05-13T11:09:21.335Z,101571.50
2023-05-13T11:11:59.447Z,101571.81
2023-05-13T11:14:28.104Z,101560.66
2023-05-13T11:17:01.920Z,101557.91
2023-05-13T11:19:32.642Z,101551.41
2023-05-13T11:22:08.565Z,101554.19
2023-05-13T11:24:36.547Z,101542.50
2023-05-13T11:27:18.331Z,101552.91
2023-05-13T11:29:56.429Z,101544.94
2023-05-13T11:32:51.867Z,101559.34
2023-05-13T11:35:30.525Z,101539.91
2023-05-13T11:38:00.648Z,101544.84
2023-05-13T11:40:41.683Z,101546.22
2023-05-13T11:43:10.888Z,101545.97
2023-05-13T11:45:40.257Z,101539.94
2023-05-13T11:48:24.057Z,101536.59
2023-05-13T11:50:54.025Z,101534.88
2023-05-13T11:53:22.554Z,101547.72
2023-05-13T11:55:50.049Z,101544.66
2023-05-13T11:58:17.335Z,101535.91
2023-05-13T12:00:46.540Z,101549.06
2023-05-13T12:03:17.610Z,101530.25
2023-05-13T12:05:44.986Z,101520.84
2023-05-13T12:08:11.953Z,101526.41
2023-05-13T12:10:45.780Z,101524.25
2023-05-13T12:13:13.049Z,101526.47
2023-05-13T12:15:41.382Z,101524.97
2023-05-13T12:18:08.433Z,101530.00
2023-05-13T12:20:36.206Z,101534.75
2023-05-13T12:23:04.471Z,101506.63
2023-05-13T12:25:53.768Z,101524.34
2023-05-13T12:28:25.614Z,101530.00
2023-05-13T12:31:02.054Z,101555.16
2023-05-13T12:33:31.934Z,101532.56
2023-05-13T12:36:26.242Z,101533.84
2023-05-13T12:39:01.136Z,101535.97
2023-05-13T12:41:30.680Z,101550.81
2023-05-13T12:44:04.203Z,101547.56
2023-05-13T12:46:31.494Z,101542.81
2023-05-13T12:49:01.443Z,101547.16
2023-05-13T12:51:33.658Z,101540.16
2023-05-13T12:54:00.894Z,101536.13
2023-05-13T12:56:28.077Z,101535.09
2023-05-13T12:58:55.356Z,101538.34
2023-05-13T13:01:22.785Z,101534.78
2023-05-13T13:03:50.166Z,101526.31
2023-05-13T13:06:17.465Z,101527.34
2023-05-13T13:08:44.550Z,101519.16
2023-05-13T13:11:18.244Z,101512.50
2023-05-13T13:13:46.132Z,101519.31
2023-05-13T13:16:13.422Z,101514.84
2023-05-13T13:18:41.456Z,101519.53
2023-05-13T13:21:08.653Z,101526.66
2023-05-13T13:23:35.553Z,101517.38
2023-05-13T13:26:03.075Z,101510.53
2023-05-13T13:28:31.659Z,101505.94
2023-05-13T13:30:59.888Z,101515.50
2023-05-13T13:33:27.588Z,101528.56
2023-05-13T13:35:54.997Z,101515.75
2023-05-13T13:38:21.928Z,101517.53
2023-05-13T13:40:48.873Z,101503.41
2023-05-13T13:43:15.889Z,101505.84
2023-05-13T13:45:42.971Z,101497.16
2023-05-13T13:48:10.441Z,101507.22
2023-05-13T13:50:37.646Z,101501.97
2023-05-13T13:53:04.737Z,101511.00
2023-05-13T13:55:31.888Z,101501.28
2023-05-13T13:57:59.049Z,101500.47
2023-05-13T14:00:26.602Z,101484.88
2023-05-13T14:02:54.018Z,101477.09
2023-05-13T14:05:21.318Z,101483.72
2023-05-13T14:07:49.525Z,101491.53
2023-05-13T14:10:16.517Z,101499.63
2023-05-13T14:12:43.504Z,101483.25
2023-05-13T14:15:11.170Z,101488.03
2023-05-13T14:17:38.335Z,101475.25
2023-05-13T14:20:06.829Z,101479.28
2023-05-13T14:22:33.968Z,101476.88
2023-05-13T14:25:01.308Z,101480.06
2023-05-13T14:27:29.216Z,101479.25
2023-05-13T14:29:56.109Z,101479.25
2023-05-13T14:32:22.977Z,101482.44
2023-05-13T14:34:49.851Z,101481.25
2023-05-13T14:37:16.869Z,101486.81
2023-05-13T14:39:43.830Z,101479.25
2023-05-13T14:42:11.496Z,101478.84
2023-05-13T14:44:38.674Z,101483.50
2023-05-13T14:47:06.552Z,101476.22
2023-05-13T14:49:33.533Z,101477.41
2023-05-13T14:52:00.626Z,101470.25
2023-05-13T14:54:27.713Z,101480.22
2023-05-13T14:56:54.743Z,101482.25
2023-05-13T14:59:21.702Z,101473.47
2023-05-13T15:01:48.684Z,101471.44
2023-05-13T15:04:15.878Z,101477.06
2023-05-13T15:06:43.020Z,101476.22
2023-05-13T15:09:10.110Z,101477.31
2023-05-13T15:11:39.946Z,101471.13
2023-05-13T15:14:08.089Z,101470.50
2023-05-13T15:16:35.130Z,101479.34
2023-05-13T15:19:03.181Z,101485.09
2023-05-13T15:21:31.163Z,101481.22
2023-05-13T15:23:58.298Z,101482.22
2023-05-13T15:26:25.881Z,101490.09
2023-05-13T15:28:52.940Z,101465.66
2023-05-13T15:31:20.134Z,101474.63
2023-05-13T15:33:47.315Z,101475.19
2023-05-13T15:36:14.329Z,101479.63
2023-05-13T15:38:41.832Z,101480.19
2023-05-13T15:41:08.828Z,101482.84
2023-05-13T15:43:36.090Z,101499.59
2023-05-13T15:46:03.507Z,101495.13
2023-05-13T15:48:30.668Z,101503.06
2023-05-13T15:50:57.689Z,101493.25
2023-05-13T15:53:24.708Z,101508.50
2023-05-13T15:55:52.058Z,101531.25
2023-05-13T15:58:19.045Z,101532.25
2023-05-13T16:00:46.065Z,101541.75
2023-05-13T16:03:13.254Z,101547.22
2023-05-13T16:05:40.444Z,101550.69
2023-05-13T16:08:07.391Z,101547.84
2023-05-13T16:10:35.656Z,101552.38
2023-05-13T16:13:02.882Z,101565.34
2023-05-13T16:15:29.843Z,101555.34
2023-05-13T16:17:56.958Z,101564.69
2023-05-13T16:20:24.355Z,101586.84
2023-05-13T16:22:51.565Z,101583.72
2023-05-13T16:25:18.468Z,101589.44
2023-05-13T16:27:45.689Z,101597.97
2023-05-13T16:30:13.080Z,101595.41
2023-05-13T16:32:40.223Z,101596.50
2023-05-13T16:35:09.941Z,101589.00
2023-05-13T16:37:37.254Z,101601.00
2023-05-13T16:40:05.092Z,101608.25
2023-05-13T16:42:32.260Z,101604.53
2023-05-13T16:44:59.298Z,101602.47
2023-05-13T16:47:26.399Z,101597.34
2023-05-13T16:49:56.053Z,101588.41
2023-05-13T16:52:24.203Z,101586.50
2023-05-13T16:54:51.444Z,101599.09
2023-05-13T16:57:22.270Z,101590.91
2023-05-13T16:59:49.399Z,101583.84
2023-05-13T17:02:16.713Z,101584.41
2023-05-13T17:04:43.883Z,101595.59
2023-05-13T17:07:10.797Z,101588.31
2023-05-13T17:09:37.996Z,101586.69
2023-05-13T17:12:05.317Z,101594.09
2023-05-13T17:14:32.208Z,101585.47
2023-05-13T17:16:59.341Z,101588.78
2023-05-13T17:19:26.264Z,101590.16
2023-05-13T17:21:53.330Z,101582.84
2023-05-13T17:24:22.281Z,101590.50
2023-05-13T17:26:50.318Z,101577.50
2023-05-13T17:29:17.275Z,101583.25
2023-05-13T17:31:44.536Z,101591.16
2023-05-13T17:34:12.085Z,101597.47
2023-05-13T17:36:39.114Z,101588.81
2023-05-13T17:39:06.659Z,101597.84
2023-05-13T17:41:33.609Z,101600.59
2023-05-13T17:44:00.603Z,101614.53
2023-05-13T17:46:28.232Z,101602.31
2023-05-13T17:48:56.162Z,101597.19
2023-05-13T17:51:23.322Z,101600.50
2023-05-13T17:53:50.375Z,101605.69
2023-05-13T17:56:17.359Z,101577.50
2023-05-13T17:58:44.359Z,101605.47
2023-05-13T18:01:11.269Z,101594.63
2023-05-13T18:03:38.272Z,101598.75
2023-05-13T18:06:05.776Z,101609.66
2023-05-13T18:08:32.862Z,101610.75
2023-05-13T18:11:00.049Z,101602.66
2023-05-13T18:13:27.020Z,101605.41
2023-05-13T18:15:54.039Z,101605.16
2023-05-13T18:18:21.199Z,101607.09
2023-05-13T18:20:48.272Z,101609.81
2023-05-13T18:23:15.709Z,101610.34
2023-05-13T18:25:52.442Z,101617.44
2023-05-13T18:28:22.678Z,101616.09
2023-05-13T18:30:49.977Z,101623.72
2023-05-13T18:33:19.711Z,101617.22
2023-05-13T18:35:46.688Z,101609.09
2023-05-13T18:38:13.800Z,101613.94
2023-05-13T18:40:41.022Z,101619.66
2023-05-13T18:43:08.046Z,101610.97
2023-05-13T18:45:37.591Z,101615.84
2023-05-13T18:48:05.124Z,101612.59
2023-05-13T18:50:32.193Z,101616.13
2023-05-13T18:52:59.267Z,101620.16
2023-05-13T18:55:26.383Z,101618.78
2023-05-13T18:57:53.451Z,101635.34
2023-05-13T19:00:20.665Z,101636.13
2023-05-13T19:02:47.875Z,101621.75
2023-05-13T19:05:15.220Z,101633.91
2023-05-13T19:07:42.818Z,101630.88
2023-05-13T19:10:10.567Z,101631.66
2023-05-13T19:12:37.741Z,101643.03
2023-05-13T19:15:05.381Z,101648.41
2023-05-13T19:17:32.808Z,101641.84
2023-05-13T19:20:00.450Z,101645.56
2023-05-13T19:22:27.573Z,101640.91
2023-05-13T19:24:54.693Z,101641.69
2023-05-13T19:27:22.042Z,101639.41
2023-05-13T19:29:49.426Z,101641.00
2023-05-13T19:32:16.681Z,101642.84
2023-05-13T19:34:43.587Z,101646.03
2023-05-13T19:37:10.796Z,101647.59
2023-05-13T19:39:38.070Z,101643.13
2023-05-13T19:42:05.470Z,101643.63
2023-05-13T19:44:33.871Z,101643.28
2023-05-13T19:47:01.261Z,101640.47
2023-05-13T19:49:28.358Z,101642.84
2023-05-13T19:51:55.390Z,101654.34
2023-05-13T19:54:22.417Z,101649.91
2023-05-13T19:56:49.327Z,101651.75
2023-05-13T19:59:16.484Z,101654.91
2023-05-13T20:01:43.608Z,101643.16
2023-05-13T20:04:10.630Z,101649.81
2023-05-13T20:06:37.697Z,101654.03
2023-05-13T20:09:05.831Z,101663.63
2023-05-13T20:11:33.042Z,101663.84
2023-05-13T20:13:59.966Z,101666.72
2023-05-13T20:16:26.920Z,101658.22
2023-05-13T20:18:53.966Z,101666.78
2023-05-13T20:21:20.995Z,101659.63
2023-05-13T20:23:47.951Z,101663.34
2023-05-13T20:26:15.079Z,101656.72
2023-05-13T20:28:42.032Z,101658.78
2023-05-13T20:31:08.973Z,101660.34
2023-05-13T20:33:36.951Z,101663.19
2023-05-13T20:36:06.287Z,101673.91
2023-05-13T20:38:33.360Z,101668.69
2023-05-13T20:41:00.841Z,101660.75
2023-05-13T20:43:27.913Z,101670.66
2023-05-13T20:45:54.913Z,101666.47
2023-05-13T20:48:21.958Z,101662.38
2023-05-13T20:50:49.015Z,101661.75
2023-05-13T20:53:16.471Z,101661.41
2023-05-13T20:55:43.516Z,101659.13
2023-05-13T20:58:12.168Z,101665.00
2023-05-13T21:00:39.234Z,101658.22
2023-05-13T21:03:06.384Z,101654.38
2023-05-13T21:05:33.318Z,101652.94
2023-05-13T21:08:00.412Z,101662.34
2023-05-13T21:10:27.452Z,101660.38
2023-05-13T21:12:54.428Z,101646.81
2023-05-13T21:15:21.337Z,101646.47
2023-05-13T21:17:48.583Z,101651.88
2023-05-13T21:20:16.161Z,101660.97
2023-05-13T21:22:43.049Z,101663.09
2023-05-13T21:25:10.135Z,101657.38
2023-05-13T21:27:37.126Z,101654.09
2023-05-13T21:30:05.513Z,101656.22
2023-05-13T21:32:33.142Z,101654.81
2023-05-13T21:35:00.338Z,101659.63
2023-05-13T21:37:27.375Z,101659.31
2023-05-13T21:39:54.274Z,101646.56
2023-05-13T21:42:21.726Z,101644.94
2023-05-13T21:44:48.679Z,101657.00
2023-05-13T21:47:15.697Z,101646.47
2023-05-13T21:49:42.779Z,101640.97
2023-05-13T21:52:09.681Z,101653.63
2023-05-13T21:54:36.785Z,101645.22
2023-05-13T21:57:04.572Z,101650.84
2023-05-13T21:59:31.477Z,101656.47
2023-05-13T22:01:58.501Z,101654.84
2023-05-13T22:04:26.733Z,101652.38
2023-05-13T22:06:53.945Z,101653.69
2023-05-13T22:09:21.048Z,101645.84
2023-05-13T22:11:48.113Z,101649.00
2023-05-13T22:14:15.235Z,101639.06
2023-05-13T22:16:42.447Z,101639.88
2023-05-13T22:19:09.486Z,101643.28
2023-05-13T22:21:36.879Z,101640.59
2023-05-13T22:24:06.214Z,101642.47
2023-05-13T22:26:33.461Z,101639.44
2023-05-13T22:29:00.856Z,101635.00
2023-05-13T22:31:27.812Z,101639.34
2023-05-13T22:33:54.881Z,101638.41
2023-05-13T22:36:22.181Z,101637.25
2023-05-13T22:38:49.376Z,101645.56
2023-05-13T22:41:18.947Z,101639.25
2023-05-13T22:43:46.087Z,101641.63
2023-05-13T22:46:13.206Z,101641.28
2023-05-13T22:48:40.109Z,101634.47
2023-05-13T22:51:07.216Z,101639.13
2023-05-13T22:53:34.714Z,101641.81
2023-05-13T22:56:01.754Z,101637.13
2023-05-13T22:58:28.805Z,101645.22
2023-05-13T23:00:55.854Z,101637.63
2023-05-13T23:03:23.015Z,101640.78
2023-05-13T23:05:50.233Z,101643.47
2023-05-13T23:08:17.591Z,101635.53
2023-05-13T23:10:44.639Z,101634.69
2023-05-13T23:13:11.732Z,101636.56
2023-05-13T23:15:38.868Z,101622.91
2023-05-13T23:18:06.105Z,101640.44
2023-05-13T23:20:33.531Z,101627.94
2023-05-13T23:23:00.547Z,101616.25
2023-05-13T23:25:27.524Z,101627.59
2023-05-13T23:27:54.823Z,101623.72
2023-05-13T23:30:22.324Z,101618.47
2023-05-13T23:32:49.545Z,101612.84
2023-05-13T23:35:16.720Z,101615.66
2023-05-13T23:37:43.917Z,101616.97
2023-05-13T23:40:11.746Z,101628.53
2023-05-13T23:42:39.014Z,101621.75
2023-05-13T23:45:07.337Z,101624.66
2023-05-13T23:47:34.621Z,101619.53
2023-05-13T23:50:02.341Z,101607.84
2023-05-13T23:52:29.607Z,101611.94
2023-05-13T23:54:56.588Z,101624.78
2023-05-13T23:57:23.716Z,101608.31
2023-05-13T23:59:50.940Z,101610.63
